Time;durP1;ratioP1;P1;durP2;ratioP2;P2;SDS_P1;SDS_P2;PMS_P1;PMS_P2;Temp;Humidity;BMP_temperature;BMP_pressure;BME280_temperature;BME280_humidity;BME280_pressure;Samples;Min_cycle;Max_cycle;Signal;HPM_P1;HPM_P2
2022/03/14 00:00:31;;;;;;;;;;;;;;;16.26;31.03;101251.09;4957435;28;127441;-66
2022/03/14 00:02:59;;;;;;;;;;;;;;;16.24;31.29;101251.41;4960001;28;127950;-66
2022/03/14 00:05:31;;;;;;;;;;;;;;;16.22;31.19;101244.63;4951182;28;97977;-64
2022/03/14 00:07:59;;;;;;;;;;;;;;;16.20;30.93;101250.34;4976942;28;98000;-66
2022/03/14 00:10:25;;;;;;;;;;;;;;;16.19;31.37;101240.53;4958045;28;98872;-64
2022/03/14 00:12:58;;;;;;;;;;;;;;;16.17;31.23;101250.91;4974007;28;127392;-66
2022/03/14 00:15:33;;;;;;;;;;;;;;;16.14;31.24;101238.69;4974441;28;97907;-67
2022/03/14 00:18:03;;;;;;;;;;;;;;;16.13;31.32;101249.88;4960962;28;98079;-66
2022/03/14 00:20:29;;;;;;;;;;;;;;;16.12;31.10;101231.94;4961264;28;98485;-64
2022/03/14 00:22:57;;;;;;;;;;;;;;;16.09;31.25;101237.94;4962550;28;127978;-64
2022/03/14 00:25:23;;;;;;;;;;;;;;;16.07;30.92;101238.25;4962303;28;99576;-66
2022/03/14 00:27:49;;;;;;;;;;;;;;;16.06;31.01;101246.66;4963134;28;97800;-66
2022/03/14 00:30:15;;;;;;;;;;;;;;;16.04;31.01;101236.06;4961467;28;128107;-64
2022/03/14 00:32:41;;;;;;;;;;;;;;;16.02;31.33;101245.59;4944033;28;112762;-66
2022/03/14 00:35:07;;;;;;;;;;;;;;;15.99;31.20;101241.53;4973583;28;98853;-64
2022/03/14 00:37:34;;;;;;;;;;;;;;;15.97;31.21;101246.47;4980662;28;98256;-65
2022/03/14 00:40:01;;;;;;;;;;;;;;;15.95;31.22;101243.22;4963235;28;100703;-64
2022/03/14 00:42:27;;;;;;;;;;;;;;;15.93;31.26;101242.69;4983133;28;103670;-64
2022/03/14 00:44:53;;;;;;;;;;;;;;;15.90;31.06;101245.97;4981202;28;126903;-64
2022/03/14 00:47:19;;;;;;;;;;;;;;;15.87;31.00;101239.19;4982637;28;97780;-64
2022/03/14 00:49:48;;;;;;;;;;;;;;;15.86;31.26;101247.63;4981917;28;99229;-64
2022/03/14 00:52:16;;;;;;;;;;;;;;;15.85;31.13;101251.47;4966776;28;98125;-64
2022/03/14 00:54:42;;;;;;;;;;;;;;;15.81;31.11;101248.50;4961886;28;97939;-66
2022/03/14 00:57:08;;;;;;;;;;;;;;;15.79;31.21;101253.38;4971727;28;98900;-64
2022/03/14 00:59:34;;;;;;;;;;;;;;;15.77;30.78;101247.44;4961313;28;125874;-66
2022/03/14 01:02:00;;;;;;;;;;;;;;;15.76;31.37;101248.53;4961890;28;126598;-64
2022/03/14 01:04:27;;;;;;;;;;;;;;;15.74;30.97;101244.47;4961318;28;128249;-66
2022/03/14 01:06:53;;;;;;;;;;;;;;;15.72;31.09;101244.78;4967172;28;99966;-66
2022/03/14 01:09:19;;;;;;;;;;;;;;;15.70;31.42;101249.66;4966101;28;102122;-66
2022/03/14 01:11:45;;;;;;;;;;;;;;;15.68;31.20;101247.22;4980211;28;98903;-66
2022/03/14 01:14:11;;;;;;;;;;;;;;;15.66;31.45;101241.25;4980606;28;118544;-64
2022/03/14 01:16:37;;;;;;;;;;;;;;;15.65;31.33;101244.28;4970292;28;97778;-66
2022/03/14 01:19:05;;;;;;;;;;;;;;;15.62;31.03;101253.75;4962375;28;98203;-66
2022/03/14 01:21:31;;;;;;;;;;;;;;;15.60;30.97;101252.41;4943833;28;98223;-66
2022/03/14 01:23:58;;;;;;;;;;;;;;;15.59;31.04;101256.22;4943848;28;98288;-63
2022/03/14 01:26:23;;;;;;;;;;;;;;;15.57;31.49;101263.84;4962299;28;106018;-66
2022/03/14 01:28:49;;;;;;;;;;;;;;;15.54;31.38;101261.69;4960911;28;125031;-66
2022/03/14 01:31:15;;;;;;;;;;;;;;;15.52;30.94;101256.53;4960728;28;98366;-63
2022/03/14 01:33:41;;;;;;;;;;;;;;;15.50;31.39;101264.16;4942666;28;127997;-64
2022/03/14 01:36:07;;;;;;;;;;;;;;;15.47;31.05;101260.09;4971380;28;117648;-63
2022/03/14 01:38:33;;;;;;;;;;;;;;;15.45;31.37;101256.84;4980063;28;125985;-64
2022/03/14 01:40:59;;;;;;;;;;;;;;;15.43;31.50;101267.19;4979416;28;128594;-66
2022/03/14 01:43:26;;;;;;;;;;;;;;;15.41;31.36;101265.84;4979095;28;98293;-65
2022/03/14 01:45:57;;;;;;;;;;;;;;;15.38;31.40;101266.41;4976292;28;98064;-66
2022/03/14 01:48:24;;;;;;;;;;;;;;;15.36;31.42;101263.94;4961374;28;98936;-63
2022/03/14 01:50:52;;;;;;;;;;;;;;;15.33;31.09;101259.09;4959448;28;119332;-64
2022/03/14 01:53:19;;;;;;;;;;;;;;;15.32;31.08;101265.59;4960545;28;128393;-66
2022/03/14 01:55:46;;;;;;;;;;;;;;;15.29;31.21;101258.03;4961515;28;98675;-63
2022/03/14 01:58:13;;;;;;;;;;;;;;;15.28;31.10;101267.25;4959009;28;125547;-63
2022/03/14 02:00:39;;;;;;;;;;;;;;;15.25;31.21;101258.84;4968447;28;99154;-63
2022/03/14 02:03:05;;;;;;;;;;;;;;;15.22;31.09;101257.53;4981303;28;97882;-63
2022/03/14 02:05:33;;;;;;;;;;;;;;;15.20;31.19;101255.06;4977772;28;118294;-66
2022/03/14 02:07:58;;;;;;;;;;;;;;;15.18;31.50;101260.00;4961242;28;99939;-67
2022/03/14 02:10:24;;;;;;;;;;;;;;;15.16;31.59;101264.06;4960538;28;126921;-66
2022/03/14 02:12:50;;;;;;;;;;;;;;;15.13;31.55;101267.31;4980127;28;127340;-66
2022/03/14 02:15:16;;;;;;;;;;;;;;;15.12;31.28;101268.44;4978793;28;103706;-66
2022/03/14 02:17:42;;;;;;;;;;;;;;;15.09;31.11;101258.94;4961314;28;127500;-66
2022/03/14 02:20:09;;;;;;;;;;;;;;;15.07;31.32;101255.69;4973236;28;129267;-66
2022/03/14 02:22:35;;;;;;;;;;;;;;;15.04;31.38;101264.38;4960276;28;97852;-63
2022/03/14 02:25:01;;;;;;;;;;;;;;;15.03;31.25;101260.06;4960281;28;98416;-63
2022/03/14 02:27:27;;;;;;;;;;;;;;;15.02;31.51;101263.06;4960914;28;98886;-63
2022/03/14 02:29:52;;;;;;;;;;;;;;;14.99;31.37;101269.84;4959976;28;128600;-65
2022/03/14 02:32:19;;;;;;;;;;;;;;;14.97;31.34;101263.84;4960290;28;127010;-63
2022/03/14 02:34:45;;;;;;;;;;;;;;;14.95;31.18;101269.56;4962260;28;98154;-66
2022/03/14 02:37:10;;;;;;;;;;;;;;;14.93;31.37;101269.06;4974339;28;98493;-65
2022/03/14 02:39:37;;;;;;;;;;;;;;;14.91;31.20;101271.22;4978658;28;128005;-65
2022/03/14 02:42:04;;;;;;;;;;;;;;;14.91;31.58;101275.84;4980176;28;97753;-66
2022/03/14 02:44:31;;;;;;;;;;;;;;;14.87;31.20;101278.28;4977673;28;112891;-63
2022/03/14 02:46:57;;;;;;;;;;;;;;;14.85;31.10;101280.47;4960986;28;99202;-66
2022/03/14 02:49:23;;;;;;;;;;;;;;;14.84;31.43;101278.84;4959562;28;128084;-65
2022/03/14 02:51:51;;;;;;;;;;;;;;;14.81;31.23;101276.66;4963883;28;97615;-64
2022/03/14 02:54:17;;;;;;;;;;;;;;;14.79;31.44;101281.56;4943128;28;97861;-66
2022/03/14 02:56:43;;;;;;;;;;;;;;;14.78;31.37;101282.69;4960034;28;100131;-66
2022/03/14 02:59:09;;;;;;;;;;;;;;;14.77;31.62;101285.66;4961156;28;98436;-64
2022/03/14 03:01:35;;;;;;;;;;;;;;;14.75;31.44;101294.06;4936566;28;99367;-63
2022/03/14 03:04:01;;;;;;;;;;;;;;;14.73;31.70;101301.66;4941707;28;116371;-63
2022/03/14 03:06:27;;;;;;;;;;;;;;;14.70;31.77;101294.91;4961382;28;128141;-66
2022/03/14 03:08:54;;;;;;;;;;;;;;;14.68;31.36;101293.53;4979378;28;123688;-63
2022/03/14 03:11:20;;;;;;;;;;;;;;;14.67;31.66;101294.63;4977571;28;98540;-63
2022/03/14 03:13:47;;;;;;;;;;;;;;;14.65;31.75;101294.09;4961794;28;97860;-65
2022/03/14 03:16:14;;;;;;;;;;;;;;;14.62;31.35;101300.88;4969023;28;97869;-63
2022/03/14 03:18:40;;;;;;;;;;;;;;;14.60;31.84;101299.53;4960669;28;98452;-64
2022/03/14 03:21:06;;;;;;;;;;;;;;;14.58;31.72;101298.97;4959191;28;127262;-66
2022/03/14 03:23:35;;;;;;;;;;;;;;;14.56;31.33;101285.69;4959680;28;116912;-65
2022/03/14 03:26:02;;;;;;;;;;;;;;;14.54;31.50;101263.47;4947780;28;99095;-66
2022/03/14 03:28:31;;;;;;;;;;;;;;;14.52;31.73;101248.53;4979865;28;98890;-66
2022/03/14 03:30:57;;;;;;;;;;;;;;;14.49;31.60;101269.69;4978725;28;98504;-66
2022/03/14 03:33:22;;;;;;;;;;;;;;;14.47;31.76;101285.41;4979778;28;117299;-68
2022/03/14 03:35:48;;;;;;;;;;;;;;;14.44;31.54;101291.38;4955806;28;128965;-63
2022/03/14 03:38:15;;;;;;;;;;;;;;;14.43;31.47;101291.66;4959585;28;127338;-63
2022/03/14 03:40:41;;;;;;;;;;;;;;;14.42;31.68;101299.00;4959281;28;97899;-63
2022/03/14 03:43:07;;;;;;;;;;;;;;;14.41;31.77;101296.53;4959478;28;98220;-63
2022/03/14 03:45:33;;;;;;;;;;;;;;;14.40;31.59;101300.34;4959636;28;128197;-66
2022/03/14 03:47:59;;;;;;;;;;;;;;;14.39;31.77;101302.25;4959272;28;119917;-64
2022/03/14 03:50:24;;;;;;;;;;;;;;;14.38;31.75;101306.03;4959177;28;122572;-63
2022/03/14 03:52:50;;;;;;;;;;;;;;;14.37;31.57;101304.41;4960392;28;97688;-66
2022/03/14 03:55:16;;;;;;;;;;;;;;;14.38;31.48;101302.50;4944976;28;128797;-66
2022/03/14 03:57:42;;;;;;;;;;;;;;;14.37;31.67;101303.59;4979707;28;128927;-67
2022/03/14 04:00:12;;;;;;;;;;;;;;;14.36;31.69;101301.97;4981848;28;98432;-66
2022/03/14 04:02:39;;;;;;;;;;;;;;;14.34;31.68;101307.66;4965071;28;98081;-66
2022/03/14 04:05:05;;;;;;;;;;;;;;;14.34;31.53;101318.50;4982365;28;98142;-63
2022/03/14 04:07:32;;;;;;;;;;;;;;;14.33;31.53;101307.94;4960924;28;99177;-63
2022/03/14 04:09:59;;;;;;;;;;;;;;;14.32;31.61;101317.16;4962689;28;98011;-63
2022/03/14 04:12:26;;;;;;;;;;;;;;;14.32;31.75;101322.59;4974406;28;97882;-66
2022/03/14 04:14:52;;;;;;;;;;;;;;;14.30;31.53;101320.13;4982657;28;98087;-63
2022/03/14 04:17:19;;;;;;;;;;;;;;;14.29;31.80;101328.53;4967040;28;98615;-63
2022/03/14 04:19:45;;;;;;;;;;;;;;;14.28;31.71;101329.63;4960717;28;99362;-66
2022/03/14 04:22:13;;;;;;;;;;;;;;;14.25;31.50;101334.50;4929344;28;97892;-66
2022/03/14 04:24:39;;;;;;;;;;;;;;;14.25;31.76;101331.78;4944534;28;98945;-63
2022/03/14 04:27:04;;;;;;;;;;;;;;;14.24;31.57;101334.78;4959407;28;98358;-63
2022/03/14 04:29:31;;;;;;;;;;;;;;;14.22;31.59;101340.47;4963641;28;110913;-63
2022/03/14 04:31:56;;;;;;;;;;;;;;;14.21;31.72;101340.75;4963325;28;100763;-63
2022/03/14 04:34:23;;;;;;;;;;;;;;;14.19;31.72;101340.22;4963726;28;98437;-63
2022/03/14 04:36:50;;;;;;;;;;;;;;;14.18;31.66;101331.22;4948947;28;98252;-66
2022/03/14 04:39:16;;;;;;;;;;;;;;;14.17;31.79;101334.22;4962926;28;97725;-66
2022/03/14 04:41:42;;;;;;;;;;;;;;;14.14;31.91;101323.91;4962338;28;113870;-66
2022/03/14 04:44:08;;;;;;;;;;;;;;;14.13;31.62;101322.31;4962483;28;98233;-67
2022/03/14 04:46:35;;;;;;;;;;;;;;;14.12;31.76;101323.38;4966098;28;109379;-63
2022/03/14 04:49:02;;;;;;;;;;;;;;;14.10;31.70;101325.53;4962969;28;97931;-66
2022/03/14 04:51:28;;;;;;;;;;;;;;;14.08;31.65;101325.00;4958515;28;98014;-66
2022/03/14 04:53:54;;;;;;;;;;;;;;;14.06;31.79;101329.88;4963448;28;98067;-65
2022/03/14 04:56:20;;;;;;;;;;;;;;;14.05;32.03;101339.91;4963383;28;98580;-66
2022/03/14 04:58:46;;;;;;;;;;;;;;;14.03;31.83;101335.84;4930206;28;107069;-65
2022/03/14 05:01:12;;;;;;;;;;;;;;;14.02;31.92;101332.31;4963828;28;98086;-66
2022/03/14 05:03:38;;;;;;;;;;;;;;;14.01;31.99;101336.13;4946478;28;128019;-63
2022/03/14 05:06:04;;;;;;;;;;;;;;;14.00;31.77;101348.03;4943987;28;129212;-66
2022/03/14 05:08:30;;;;;;;;;;;;;;;14.00;31.81;101345.34;4962337;28;127567;-63
2022/03/14 05:10:57;;;;;;;;;;;;;;;13.98;31.74;101339.34;4961879;28;116790;-64
2022/03/14 05:13:23;;;;;;;;;;;;;;;13.96;32.05;101345.06;4980897;28;98546;-67
2022/03/14 05:15:49;;;;;;;;;;;;;;;13.95;31.90;101348.00;4977084;28;98660;-64
2022/03/14 05:18:15;;;;;;;;;;;;;;;13.94;31.92;101358.06;4961754;28;109952;-64
2022/03/14 05:20:41;;;;;;;;;;;;;;;13.93;31.90;101353.72;4962129;28;104798;-67
2022/03/14 05:23:07;;;;;;;;;;;;;;;13.93;32.03;101353.72;4961253;28;120386;-67
2022/03/14 05:25:33;;;;;;;;;;;;;;;13.93;32.07;101350.19;4942496;28;128539;-64
2022/03/14 05:27:59;;;;;;;;;;;;;;;13.93;31.91;101358.31;4962162;28;98378;-64
2022/03/14 05:30:25;;;;;;;;;;;;;;;13.93;31.99;101358.31;4961333;28;98004;-67
2022/03/14 05:32:51;;;;;;;;;;;;;;;13.92;31.87;101357.50;4962239;28;98784;-67
2022/03/14 05:35:17;;;;;;;;;;;;;;;13.92;31.86;101360.22;4961434;28;113143;-63
2022/03/14 05:37:43;;;;;;;;;;;;;;;13.92;31.87;101371.06;4961866;28;97892;-66
2022/03/14 05:40:11;;;;;;;;;;;;;;;13.92;31.85;101371.06;4978888;27;97953;-66
2022/03/14 05:42:36;;;;;;;;;;;;;;;13.94;32.08;101370.78;4966869;28;98765;-67
2022/03/14 05:45:03;;;;;;;;;;;;;;;13.94;32.09;101374.31;4977247;28;99009;-64
2022/03/14 05:47:29;;;;;;;;;;;;;;;13.96;31.91;101377.59;4972100;28;125358;-66
2022/03/14 05:49:55;;;;;;;;;;;;;;;13.98;31.95;101385.44;4971584;28;100895;-66
2022/03/14 05:52:21;;;;;;;;;;;;;;;13.97;32.03;101387.34;4965217;28;128088;-63
2022/03/14 05:54:48;;;;;;;;;;;;;;;13.95;32.35;101391.38;4976123;28;98157;-66
2022/03/14 05:57:14;;;;;;;;;;;;;;;13.93;31.96;101388.94;4977153;28;98123;-65
2022/03/14 05:59:40;;;;;;;;;;;;;;;13.90;32.09;101389.47;4973425;28;116644;-63
2022/03/14 06:02:06;;;;;;;;;;;;;;;13.87;32.21;101390.03;4971526;28;128471;-63
2022/03/14 06:04:31;;;;;;;;;;;;;;;13.84;32.42;101387.03;4958067;28;126187;-65
2022/03/14 06:06:57;;;;;;;;;;;;;;;13.82;32.48;101386.47;4971329;28;126777;-66
2022/03/14 06:09:28;;;;;;;;;;;;;;;13.77;32.04;101384.56;4977957;28;97808;-63
2022/03/14 06:11:54;;;;;;;;;;;;;;;13.75;32.20;101390.28;4968379;28;98592;-65
2022/03/14 06:14:20;;;;;;;;;;;;;;;13.74;32.58;101387.81;4984496;28;98320;-65
2022/03/14 06:16:46;;;;;;;;;;;;;;;13.73;32.46;101389.72;4962808;28;127468;-63
2022/03/14 06:19:12;;;;;;;;;;;;;;;13.74;32.48;101387.81;4955180;28;118019;-66
2022/03/14 06:21:39;;;;;;;;;;;;;;;13.73;32.52;101394.31;4977809;28;127916;-63
2022/03/14 06:24:06;;;;;;;;;;;;;;;13.73;32.73;101395.13;4981161;28;99108;-65
2022/03/14 06:26:35;;;;;;;;;;;;;;;13.78;32.92;101399.75;4970539;28;97946;-65
2022/03/14 06:29:02;;;;;;;;;;;;;;;13.85;32.61;101404.91;4943675;28;98275;-65
2022/03/14 06:31:30;;;;;;;;;;;;;;;13.93;32.55;101407.13;4980768;28;98492;-63
2022/03/14 06:33:56;;;;;;;;;;;;;;;13.99;32.80;101411.47;4980300;28;98423;-65
2022/03/14 06:36:22;;;;;;;;;;;;;;;14.04;32.73;101411.47;4978099;28;126588;-63
2022/03/14 06:38:48;;;;;;;;;;;;;;;14.07;32.65;101408.25;4979675;28;118846;-65
2022/03/14 06:41:14;;;;;;;;;;;;;;;14.10;32.59;101415.00;4973608;28;99139;-63
2022/03/14 06:43:40;;;;;;;;;;;;;;;14.12;32.63;101410.16;4960472;28;98351;-65
2022/03/14 06:46:08;;;;;;;;;;;;;;;14.15;32.66;101413.13;4960458;28;97817;-63
2022/03/14 06:48:39;;;;;;;;;;;;;;;14.17;32.84;101410.97;4961360;28;97773;-63
2022/03/14 06:51:05;;;;;;;;;;;;;;;14.22;32.90;101407.44;4976352;28;98423;-63
2022/03/14 06:53:31;;;;;;;;;;;;;;;14.25;32.73;101410.44;4970426;28;98780;-63
2022/03/14 06:55:57;;;;;;;;;;;;;;;14.32;33.09;101410.16;4979663;28;113369;-63
2022/03/14 06:58:23;;;;;;;;;;;;;;;14.37;33.05;101406.66;4963108;28;117279;-63
2022/03/14 07:00:49;;;;;;;;;;;;;;;14.41;32.76;101403.13;4959302;28;129361;-65
2022/03/14 07:03:15;;;;;;;;;;;;;;;14.47;33.13;101406.66;4959833;28;127786;-63
2022/03/14 07:05:41;;;;;;;;;;;;;;;14.57;32.87;101406.69;4950729;28;119921;-65
2022/03/14 07:08:07;;;;;;;;;;;;;;;14.65;33.01;101408.03;4961021;28;98492;-65
2022/03/14 07:10:33;;;;;;;;;;;;;;;14.68;32.99;101407.50;4959518;28;98250;-63
2022/03/14 07:12:59;;;;;;;;;;;;;;;14.75;32.95;101407.25;4974464;28;101258;-65
2022/03/14 07:15:25;;;;;;;;;;;;;;;14.82;33.17;101405.88;4975959;28;98261;-65
2022/03/14 07:17:51;;;;;;;;;;;;;;;14.91;33.37;101412.38;4941916;28;98264;-63
2022/03/14 07:20:18;;;;;;;;;;;;;;;15.09;33.19;101405.56;4960070;28;98349;-65
2022/03/14 07:22:52;;;;;;;;;;;;;;;15.28;33.26;101418.53;4960544;28;98123;-63
2022/03/14 07:25:23;;;;;;;;;;;;;;;15.33;33.38;101424.78;4959576;28;98164;-63
2022/03/14 07:27:48;;;;;;;;;;;;;;;15.34;33.47;101428.31;4964941;28;98333;-65
2022/03/14 07:30:14;;;;;;;;;;;;;;;15.38;33.63;101432.91;4980212;27;129804;-63
2022/03/14 07:32:40;;;;;;;;;;;;;;;15.46;33.60;101426.91;4982621;28;108242;-63
2022/03/14 07:35:07;;;;;;;;;;;;;;;15.57;33.42;101429.59;4983041;28;97787;-63
2022/03/14 07:37:33;;;;;;;;;;;;;;;15.69;33.60;101430.13;4983007;28;110658;-65
2022/03/14 07:39:59;;;;;;;;;;;;;;;15.83;33.53;101431.13;4964773;28;126263;-65
2022/03/14 07:42:25;;;;;;;;;;;;;;;16.00;33.42;101435.44;4964177;28;128678;-63
2022/03/14 07:44:50;;;;;;;;;;;;;;;16.16;33.35;101436.97;4961499;28;127509;-63
2022/03/14 07:47:16;;;;;;;;;;;;;;;16.36;33.39;101441.47;4963049;28;114105;-63
2022/03/14 07:49:43;;;;;;;;;;;;;;;16.58;33.22;101451.91;4962124;28;126821;-65
2022/03/14 07:52:09;;;;;;;;;;;;;;;16.85;33.19;101451.44;4963414;28;98119;-65
2022/03/14 07:54:35;;;;;;;;;;;;;;;17.12;33.08;101457.19;4978768;28;105229;-63
2022/03/14 07:57:01;;;;;;;;;;;;;;;17.46;32.97;101466.41;4981257;28;116248;-64
2022/03/14 07:59:26;;;;;;;;;;;;;;;17.79;32.91;101465.47;4966998;28;97968;-66
2022/03/14 08:01:52;;;;;;;;;;;;;;;18.17;32.50;101462.81;4961899;28;126476;-64
2022/03/14 08:04:18;;;;;;;;;;;;;;;18.62;32.48;101472.22;4961768;28;119643;-63
2022/03/14 08:06:45;;;;;;;;;;;;;;;19.19;32.06;101474.84;4969359;28;97812;-64
2022/03/14 08:09:11;;;;;;;;;;;;;;;19.74;31.52;101474.94;4968669;28;99183;-66
2022/03/14 08:11:38;;;;;;;;;;;;;;;20.48;31.04;101469.19;4967054;28;98218;-66
2022/03/14 08:14:07;;;;;;;;;;;;;;;21.55;30.33;101480.19;4967660;28;97995;-66
2022/03/14 08:16:33;;;;;;;;;;;;;;;22.59;29.64;101481.53;4928302;28;98053;-66
2022/03/14 08:18:59;;;;;;;;;;;;;;;23.62;28.85;101490.66;4961922;28;129275;-66
2022/03/14 08:21:25;;;;;;;;;;;;;;;24.56;28.53;101491.22;4961971;28;98882;-66
2022/03/14 08:23:51;;;;;;;;;;;;;;;25.53;27.84;101489.09;4965604;28;116297;-64
2022/03/14 08:26:17;;;;;;;;;;;;;;;26.54;27.15;101502.91;4976357;28;118045;-66
2022/03/14 08:28:44;;;;;;;;;;;;;;;27.61;26.82;101504.97;4963159;28;98428;-64
2022/03/14 08:31:13;;;;;;;;;;;;;;;28.86;26.03;101510.50;4966184;28;98849;-67
2022/03/14 08:33:41;;;;;;;;;;;;;;;30.08;25.34;101514.16;4963971;28;102501;-67
2022/03/14 08:36:07;;;;;;;;;;;;;;;31.24;24.69;101517.97;4975123;28;97952;-64
2022/03/14 08:38:33;;;;;;;;;;;;;;;32.31;24.17;101523.53;4962321;28;99115;-67
2022/03/14 08:40:59;;;;;;;;;;;;;;;33.20;23.81;101518.25;4962838;28;98310;-64
2022/03/14 08:43:25;;;;;;;;;;;;;;;33.86;23.50;101528.22;4979205;28;128218;-64
2022/03/14 08:45:51;;;;;;;;;;;;;;;34.38;23.53;101525.69;4981349;28;97768;-66
2022/03/14 08:48:17;;;;;;;;;;;;;;;34.86;23.00;101523.09;4980843;28;114668;-66
2022/03/14 08:50:43;;;;;;;;;;;;;;;35.52;23.08;101519.44;4981071;28;128446;-67
2022/03/14 08:53:09;;;;;;;;;;;;;;;36.24;22.49;101515.91;4980644;28;97703;-67
2022/03/14 08:55:35;;;;;;;;;;;;;;;36.96;22.22;101512.97;4981527;28;116759;-65
2022/03/14 08:58:02;;;;;;;;;;;;;;;37.82;21.58;101507.50;4980982;28;127778;-64
2022/03/14 09:00:29;;;;;;;;;;;;;;;38.87;20.82;101515.41;4963489;28;98158;-66
2022/03/14 09:02:55;;;;;;;;;;;;;;;39.90;20.82;101508.38;4982010;28;98270;-64
2022/03/14 09:05:21;;;;;;;;;;;;;;;40.51;20.13;101504.59;4976199;28;98640;-64
2022/03/14 09:07:47;;;;;;;;;;;;;;;41.01;20.02;101505.09;4962254;28;98077;-64
2022/03/14 09:10:14;;;;;;;;;;;;;;;41.61;19.76;101502.25;4961696;28;98669;-67
2022/03/14 09:12:40;;;;;;;;;;;;;;;41.97;19.43;101498.13;4954085;28;99470;-64
2022/03/14 09:15:07;;;;;;;;;;;;;;;42.35;19.32;101493.06;4961939;28;97978;-65
2022/03/14 09:17:35;;;;;;;;;;;;;;;42.97;19.17;101488.59;4961419;28;98878;-64
2022/03/14 09:20:01;;;;;;;;;;;;;;;43.20;18.74;101488.03;4961555;28;98182;-62
2022/03/14 09:22:28;;;;;;;;;;;;;;;43.09;18.11;101491.31;4967006;28;97909;-63
2022/03/14 09:24:55;;;;;;;;;;;;;;;42.69;17.72;101479.22;4979868;28;97981;-65
2022/03/14 09:27:21;;;;;;;;;;;;;;;42.37;17.48;101476.41;4982167;28;98125;-63
2022/03/14 09:29:47;;;;;;;;;;;;;;;41.76;17.66;101475.03;4979248;28;122055;-65
2022/03/14 09:32:15;;;;;;;;;;;;;;;40.85;18.04;101467.22;4980591;28;117017;-64
2022/03/14 09:34:42;;;;;;;;;;;;;;;39.58;18.81;101464.09;4962636;28;97909;-65
2022/03/14 09:37:08;;;;;;;;;;;;;;;38.42;19.54;101453.25;4962667;28;98063;-64
2022/03/14 09:39:34;;;;;;;;;;;;;;;37.58;19.76;101455.34;4961398;28;127193;-64
2022/03/14 09:42:01;;;;;;;;;;;;;;;37.02;19.97;101460.69;4961373;28;97832;-64
2022/03/14 09:44:28;;;;;;;;;;;;;;;36.62;20.25;101460.50;4961731;28;97880;-63
2022/03/14 09:46:55;;;;;;;;;;;;;;;36.20;19.95;101470.25;4942773;28;98123;-65
2022/03/14 09:49:21;;;;;;;;;;;;;;;35.78;19.92;101472.34;4943095;28;98789;-65
2022/03/14 09:51:46;;;;;;;;;;;;;;;35.39;19.95;101473.50;4949037;28;127010;-63
2022/03/14 09:54:12;;;;;;;;;;;;;;;35.01;19.32;101478.22;4962142;28;110152;-63
2022/03/14 09:56:43;;;;;;;;;;;;;;;34.61;19.52;101472.84;4979936;28;128025;-66
2022/03/14 09:59:10;;;;;;;;;;;;;;;34.20;19.31;101469.84;4971467;28;98188;-64
2022/03/14 10:01:36;;;;;;;;;;;;;;;33.83;18.96;101475.91;4979018;28;98881;-66
2022/03/14 10:04:02;;;;;;;;;;;;;;;33.51;19.34;101470.38;4966493;28;97987;-63
2022/03/14 10:06:29;;;;;;;;;;;;;;;33.27;18.86;101477.56;4958963;28;127913;-65
2022/03/14 10:08:55;;;;;;;;;;;;;;;33.02;18.76;101469.97;4961408;28;98353;-64
2022/03/14 10:11:20;;;;;;;;;;;;;;;32.81;19.00;101483.84;4943853;28;127433;-64
2022/03/14 10:13:46;;;;;;;;;;;;;;;32.61;18.86;101489.00;4969444;28;116565;-64
2022/03/14 10:16:12;;;;;;;;;;;;;;;32.44;18.85;101490.53;4941749;28;124414;-65
2022/03/14 10:18:58;;;;;;;;;;;;;;;32.29;18.49;101495.22;4960242;28;124173;-64
2022/03/14 10:21:37;;;;;;;;;;;;;;;32.12;18.58;101495.94;4962349;28;98274;-63
2022/03/14 10:24:07;;;;;;;;;;;;;;;31.93;18.43;101497.03;4968823;28;98026;-65
2022/03/14 10:26:34;;;;;;;;;;;;;;;31.77;18.54;101503.69;4980315;28;97940;-66
2022/03/14 10:29:01;;;;;;;;;;;;;;;31.57;18.69;101501.53;4980520;28;98919;-63
2022/03/14 10:31:35;;;;;;;;;;;;;;;31.35;18.43;101503.34;4980514;28;113171;-63
2022/03/14 10:34:05;;;;;;;;;;;;;;;31.16;18.40;101529.38;4978457;28;110137;-65
2022/03/14 10:36:49;;;;;;;;;;;;;;;30.95;18.69;101525.22;4942146;28;98041;-67
2022/03/14 10:39:22;;;;;;;;;;;;;;;30.69;18.25;101520.53;4975391;28;98306;-63
2022/03/14 10:42:02;;;;;;;;;;;;;;;30.39;18.61;101520.56;4980899;28;98933;-63
2022/03/14 10:44:29;;;;;;;;;;;;;;;29.85;17.96;101524.53;4964828;28;97857;-63
2022/03/14 10:46:58;;;;;;;;;;;;;;;29.39;18.17;101529.31;4970803;28;124782;-65
2022/03/14 10:49:28;;;;;;;;;;;;;;;29.09;18.23;101535.53;4978464;28;98550;-66
2022/03/14 10:51:55;;;;;;;;;;;;;;;28.86;18.09;101530.72;4979960;28;98570;-65
2022/03/14 10:54:21;;;;;;;;;;;;;;;28.78;18.55;101534.53;4979680;28;107983;-65
2022/03/14 10:57:07;;;;;;;;;;;;;;;29.18;18.49;101533.31;4979999;28;98237;-65
2022/03/14 10:59:33;;;;;;;;;;;;;;;29.69;18.01;101543.34;4984660;28;97776;-64
2022/03/14 11:02:00;;;;;;;;;;;;;;;29.41;18.60;101536.13;4980005;28;97937;-63
2022/03/14 11:04:27;;;;;;;;;;;;;;;29.15;18.52;101536.03;4960177;28;98312;-63
2022/03/14 11:07:02;;;;;;;;;;;;;;;29.24;18.55;101537.41;4960326;28;98007;-66
2022/03/14 11:09:45;;;;;;;;;;;;;;;29.24;18.28;101533.81;4960026;28;98934;-63
2022/03/14 11:12:13;;;;;;;;;;;;;;;29.31;18.23;101540.28;4969704;28;98511;-62
2022/03/14 11:14:39;;;;;;;;;;;;;;;29.51;18.22;101540.22;4959922;28;98241;-66
2022/03/14 11:17:14;;;;;;;;;;;;;;;29.66;18.16;101532.97;4961079;28;98412;-65
2022/03/14 11:19:40;;;;;;;;;;;;;;;29.65;18.41;101545.25;4960316;28;98470;-66
2022/03/14 11:22:07;;;;;;;;;;;;;;;29.62;18.50;101535.69;4971404;28;99046;-63
2022/03/14 11:24:33;;;;;;;;;;;;;;;29.90;18.59;101531.75;4977721;28;98105;-63
2022/03/14 11:26:59;;;;;;;;;;;;;;;29.85;18.59;101535.66;4977430;28;125973;-63
2022/03/14 11:29:25;;;;;;;;;;;;;;;29.96;18.53;101533.84;4961481;28;127676;-63
2022/03/14 11:31:52;;;;;;;;;;;;;;;29.90;18.99;101532.56;4959119;28;126844;-63
2022/03/14 11:34:18;;;;;;;;;;;;;;;29.58;18.38;101541.19;4956420;28;97846;-66
2022/03/14 11:36:44;;;;;;;;;;;;;;;29.45;18.49;101534.19;4975874;28;97937;-65
2022/03/14 11:39:10;;;;;;;;;;;;;;;29.07;18.35;101543.41;4943665;28;127914;-66
2022/03/14 11:41:38;;;;;;;;;;;;;;;28.50;18.74;101529.22;4959678;28;127240;-66
2022/03/14 11:44:05;;;;;;;;;;;;;;;28.14;18.46;101527.59;4965904;28;97932;-66
2022/03/14 11:46:34;;;;;;;;;;;;;;;27.92;18.35;101534.63;4942272;28;98274;-63
2022/03/14 11:49:16;;;;;;;;;;;;;;;27.50;18.43;101532.38;4958448;28;98259;-65
2022/03/14 11:51:42;;;;;;;;;;;;;;;27.15;18.73;101526.72;4958585;28;121383;-66
2022/03/14 11:54:12;;;;;;;;;;;;;;;26.76;18.77;101531.16;4959444;28;97912;-63
2022/03/14 11:56:38;;;;;;;;;;;;;;;26.48;18.83;101520.09;4974925;28;99009;-63
2022/03/14 11:59:08;;;;;;;;;;;;;;;26.19;18.97;101536.59;4957742;28;99389;-65
2022/03/14 12:01:34;;;;;;;;;;;;;;;25.88;19.19;101534.44;4959542;28;97831;-63
2022/03/14 12:04:02;;;;;;;;;;;;;;;25.62;19.20;101532.00;4968594;28;97993;-63
2022/03/14 12:06:47;;;;;;;;;;;;;;;25.41;19.16;101534.03;4979660;28;98332;-65
2022/03/14 12:09:25;;;;;;;;;;;;;;;25.21;19.15;101542.03;4971854;28;99774;-64
2022/03/14 12:12:09;;;;;;;;;;;;;;;24.93;19.08;101546.50;4967131;28;98309;-66
2022/03/14 12:14:44;;;;;;;;;;;;;;;24.62;19.44;101539.47;4976811;28;98154;-66
2022/03/14 12:17:13;;;;;;;;;;;;;;;24.42;19.59;101534.78;4988705;27;98225;-66
2022/03/14 12:19:44;;;;;;;;;;;;;;;24.25;19.61;101546.72;4969135;28;98490;-65
2022/03/14 12:22:35;;;;;;;;;;;;;;;24.06;19.58;101549.09;4983064;28;97865;-64
2022/03/14 12:25:04;;;;;;;;;;;;;;;23.86;19.73;101548.69;4982369;28;98026;-64
2022/03/14 12:27:34;;;;;;;;;;;;;;;23.64;19.73;101546.97;4970376;28;123457;-67
2022/03/14 12:30:06;;;;;;;;;;;;;;;23.42;19.83;101544.47;4965286;28;98973;-65
2022/03/14 12:32:38;;;;;;;;;;;;;;;23.21;19.90;101545.16;4944131;28;98187;-66